Time;durP1;ratioP1;P1;durP2;ratioP2;P2;SDS_P1;SDS_P2;PMS_P1;PMS_P2;Temp;Humidity;BMP_temperature;BMP_pressure;BME280_temperature;BME280_humidity;BME280_pressure;Samples;Min_cycle;Max_cycle;Signal;HPM_P1;HPM_P2
2023/09/08 00:01:22;;;;;;;20.60;19.40;;;;;;;-141.02;79.31;39965.22;5135113;27;20194;-59
2023/09/08 00:03:49;;;;;;;20.75;19.55;;;;;;;-141.02;79.70;39953.72;5135013;27;20243;-58
2023/09/08 00:06:17;;;;;;;21.00;19.80;;;;;;;-141.02;80.74;39965.22;5135341;27;20568;-58
2023/09/08 00:08:44;;;;;;;20.05;18.95;;;;;;;-141.02;84.66;39930.69;5135006;27;20189;-58
2023/09/08 00:11:11;;;;;;;20.08;18.98;;;;;;;-141.02;85.76;39923.03;5134937;27;20662;-58
2023/09/08 00:13:39;;;;;;;19.23;18.23;;;;;;;-141.02;87.26;39915.34;5135253;27;20192;-58
2023/09/08 00:16:06;;;;;;;19.52;18.52;;;;;;;-141.02;87.78;39896.16;5134884;27;20253;-58
2023/09/08 00:18:33;;;;;;;19.88;18.77;;;;;;;-141.02;87.87;39923.03;5135027;27;20192;-59
2023/09/08 00:21:00;;;;;;;19.73;18.63;;;;;;;-141.02;89.13;39888.50;5134771;27;20207;-59
2023/09/08 00:23:29;;;;;;;19.63;18.52;;;;;;;-141.02;91.85;39853.97;5134941;27;20251;-59
2023/09/08 00:25:56;;;;;;;19.00;18.00;;;;;;;-141.02;94.96;39840.53;5134998;27;20192;-58
2023/09/08 00:28:23;;;;;;;18.20;17.30;;;;;;;-141.02;97.87;39704.38;5134514;27;20629;-58
2023/09/08 00:30:50;;;;;;;17.77;16.88;;;;;;;-141.02;100.00;39612.31;5134796;27;20275;-59
2023/09/08 00:33:17;;;;;;;16.90;16.10;;;;;;;-141.02;100.00;39562.44;5134510;27;20699;-59
2023/09/08 00:35:45;;;;;;;17.08;16.27;;;;;;;-141.02;100.00;39462.72;5134717;27;20220;-59
2023/09/08 00:38:18;;;;;;;17.08;16.27;;;;;;;-141.02;100.00;39399.44;5134393;27;20667;-58
2023/09/08 00:40:53;;;;;;;16.55;15.85;;;;;;;-141.02;100.00;39351.47;5134624;27;20606;-59
2023/09/08 00:43:20;;;;;;;16.30;15.60;;;;;;;-141.02;100.00;39320.78;5134583;27;20181;-58
2023/09/08 00:45:49;;;;;;;16.63;15.93;;;;;;;-141.02;100.00;39297.78;5134502;27;20220;-58
2023/09/08 00:48:16;;;;;;;16.40;15.70;;;;;;;-141.02;100.00;39293.94;5134510;27;20204;-58
2023/09/08 00:50:43;;;;;;;16.45;15.75;;;;;;;-141.02;100.00;39249.84;5134101;27;20713;-58
2023/09/08 00:53:12;;;;;;;16.35;15.65;;;;;;;-141.02;100.00;39244.09;5134030;27;20658;-58
2023/09/08 00:55:40;;;;;;;16.52;15.82;;;;;;;-141.02;100.00;39219.16;5134085;27;20573;-59
2023/09/08 00:58:09;;;;;;;16.48;15.77;;;;;;;-141.02;100.00;39213.41;5134265;27;20269;-58
2023/09/08 01:00:36;;;;;;;16.23;15.52;;;;;;;-141.02;100.00;39215.31;5133928;27;20235;-59
2023/09/08 01:03:03;;;;;;;16.30;15.60;;;;;;;-141.02;100.00;39232.59;5133648;27;20621;-60
2023/09/08 01:05:30;;;;;;;16.52;15.82;;;;;;;-141.02;100.00;39234.50;5134164;27;20632;-58
2023/09/08 01:08:00;;;;;;;16.15;15.45;;;;;;;-141.02;100.00;39263.25;5133870;27;20192;-58
2023/09/08 01:10:29;;;;;;;16.67;15.98;;;;;;;-141.02;100.00;39209.56;5134025;27;20245;-59
2023/09/08 01:12:56;;;;;;;16.58;15.88;;;;;;;-141.02;100.00;39230.66;5134044;27;20196;-58
2023/09/08 01:15:24;;;;;;;16.80;16.10;;;;;;;-141.02;100.00;39224.91;5133954;27;20642;-59
2023/09/08 01:17:51;;;;;;;16.52;15.82;;;;;;;-141.02;100.00;39201.91;5133973;27;20275;-58
2023/09/08 01:20:22;;;;;;;16.45;15.75;;;;;;;-141.02;100.00;39211.50;5133896;27;20646;-58
2023/09/08 01:23:03;;;;;;;16.35;15.65;;;;;;;-141.02;100.00;39217.25;5133939;27;20184;-58
2023/09/08 01:25:33;;;;;;;15.65;15.05;;;;;;;-141.02;100.00;39186.56;5133777;27;20238;-58
2023/09/08 01:28:04;;;;;;;15.65;15.05;;;;;;;-141.02;100.00;39209.56;5133578;27;20638;-58
2023/09/08 01:30:33;;;;;;;16.00;15.30;;;;;;;-141.02;100.00;39190.38;5133885;27;20188;-59
2023/09/08 01:33:01;;;;;;;16.00;15.30;;;;;;;-141.02;100.00;39188.47;5133413;27;20587;-60
2023/09/08 01:35:28;;;;;;;16.05;15.35;;;;;;;-141.02;100.00;39152.03;5133362;27;20287;-58
2023/09/08 01:37:55;;;;;;;15.27;14.68;;;;;;;-141.02;100.00;39182.72;5133640;27;20203;-59
2023/09/08 01:40:22;;;;;;;15.90;15.20;;;;;;;-141.02;100.00;39144.38;5133116;27;20193;-59
2023/09/08 01:42:51;;;;;;;15.40;14.80;;;;;;;-141.02;100.00;39186.56;5133507;27;20189;-58
2023/09/08 01:45:18;;;;;;;15.45;14.85;;;;;;;-141.02;100.00;39144.38;5133145;27;20697;-58
2023/09/08 01:47:45;;;;;;;15.50;14.90;;;;;;;-141.02;100.00;39140.53;5133508;27;20253;-58
2023/09/08 01:50:12;;;;;;;15.43;14.82;;;;;;;-141.02;100.00;39159.72;5133153;27;20650;-70
2023/09/08 01:52:39;;;;;;;15.43;14.82;;;;;;;-141.02;100.00;39134.78;5133464;27;20253;-58
2023/09/08 01:55:07;;;;;;;15.50;14.90;;;;;;;-141.02;100.00;39130.94;5132987;27;20700;-58
2023/09/08 01:57:34;;;;;;;15.40;14.80;;;;;;;-141.02;100.00;39130.94;5133072;27;20725;-59
2023/09/08 02:00:03;;;;;;;15.20;14.60;;;;;;;-141.02;100.00;39125.19;5133320;27;20192;-59
2023/09/08 02:02:30;;;;;;;15.00;14.40;;;;;;;-141.02;100.00;39113.69;5133048;27;20196;-58
2023/09/08 02:04:57;;;;;;;15.07;14.48;;;;;;;-141.02;100.00;39121.34;5132789;27;20268;-58
2023/09/08 02:07:24;;;;;;;14.82;14.23;;;;;;;-141.02;100.00;39092.59;5133256;27;20189;-58
2023/09/08 02:09:51;;;;;;;14.95;14.35;;;;;;;-141.02;100.00;39067.66;5133273;27;20235;-58
2023/09/08 02:12:22;;;;;;;15.23;14.63;;;;;;;-141.02;100.00;39065.75;5133737;27;20649;-58
2023/09/08 02:14:49;;;;;;;15.10;14.50;;;;;;;-141.02;100.00;39063.81;5133190;27;20192;-58
2023/09/08 02:17:18;;;;;;;15.25;14.65;;;;;;;-141.02;100.00;39090.69;5132863;27;20658;-58
2023/09/08 02:19:44;;;;;;;15.20;14.60;;;;;;;-141.02;100.00;39048.50;5133191;27;20304;-58
2023/09/08 02:22:12;;;;;;;15.30;14.70;;;;;;;-141.02;100.00;39044.66;5132888;27;20719;-58
2023/09/08 02:24:39;;;;;;;15.10;14.50;;;;;;;-141.02;100.00;39036.97;5132681;27;20315;-58
2023/09/08 02:27:06;;;;;;;14.75;14.25;;;;;;;-141.02;100.00;39046.56;5133111;27;20625;-59
2023/09/08 02:29:33;;;;;;;14.80;14.30;;;;;;;-141.02;100.00;39046.56;5133043;27;20287;-58
2023/09/08 02:31:59;;;;;;;14.85;14.35;;;;;;;-141.02;100.00;39040.81;5132780;27;20279;-58
2023/09/08 02:34:28;;;;;;;14.57;14.07;;;;;;;-141.02;100.00;39042.72;5132728;27;20737;-58
2023/09/08 02:40:17;;;;;;;14.55;14.05;;;;;;;-141.02;100.00;38987.13;5132757;28;20181;-58
2023/09/08 02:43:20;;;;;;;14.25;13.75;;;;;;;-141.02;100.00;38983.28;5132589;27;20249;-58
2023/09/08 02:45:48;;;;;;;14.60;14.10;;;;;;;-141.02;100.00;38987.13;5132424;27;20340;-58
2023/09/08 02:48:15;;;;;;;14.70;14.20;;;;;;;-141.02;100.00;38979.47;5132875;27;20279;-58
2023/09/08 02:50:44;;;;;;;14.80;14.30;;;;;;;-141.02;100.00;38944.94;5132819;27;20227;-58
2023/09/08 02:53:17;;;;;;;14.52;14.02;;;;;;;-141.02;100.00;38956.44;5134565;27;20196;-58
2023/09/08 02:55:44;;;;;;;14.18;13.68;;;;;;;-141.02;100.00;38933.44;5136503;27;20196;-58
2023/09/08 02:58:11;;;;;;;14.50;14.00;;;;;;;-141.02;100.00;38966.03;5136332;27;20228;-58
2023/09/08 03:00:38;;;;;;;14.30;13.80;;;;;;;-141.02;100.00;38948.78;5136369;27;20196;-58
2023/09/08 03:03:05;;;;;;;14.40;13.90;;;;;;;-141.02;100.00;38939.19;5136304;27;20598;-59
2023/09/08 03:05:33;;;;;;;14.20;13.70;;;;;;;-141.02;100.00;38944.94;5136534;27;20213;-58
2023/09/08 03:08:01;;;;;;;14.18;13.68;;;;;;;-141.02;100.00;38935.34;5136203;27;20204;-58
2023/09/08 03:10:28;;;;;;;14.13;13.63;;;;;;;-141.02;100.00;38914.25;5136449;27;20200;-58
2023/09/08 03:12:55;;;;;;;13.98;13.48;;;;;;;-141.02;100.00;38914.25;5136450;27;20578;-58
2023/09/08 03:15:22;;;;;;;13.20;12.80;;;;;;;-141.02;100.00;38933.44;5136017;27;20196;-59
2023/09/08 03:17:49;;;;;;;13.23;12.82;;;;;;;-141.02;100.00;38898.91;5136065;27;20198;-58
2023/09/08 03:20:16;;;;;;;14.05;13.55;;;;;;;-141.02;100.00;38902.75;5136369;27;20203;-58
2023/09/08 03:23:14;;;;;;;13.73;13.32;;;;;;;-141.02;100.00;38858.66;5135943;27;20246;-58
2023/09/08 03:25:41;;;;;;;13.80;13.40;;;;;;;-141.02;100.00;38852.91;5136107;27;20281;-70
2023/09/08 03:28:08;;;;;;;13.02;12.63;;;;;;;-141.02;100.00;38801.13;5136208;27;20196;-58
2023/09/08 03:30:35;;;;;;;13.40;13.00;;;;;;;-141.02;100.00;38814.56;5136032;27;20192;-63
2023/09/08 03:33:02;;;;;;;13.68;13.27;;;;;;;-141.02;100.00;38764.69;5136069;27;20608;-58
2023/09/08 03:35:29;;;;;;;13.75;13.35;;;;;;;-141.02;100.00;38741.69;5135723;27;20239;-58
2023/09/08 03:37:56;;;;;;;13.50;13.10;;;;;;;-141.02;100.00;38789.63;5135630;27;20196;-59
2023/09/08 03:40:24;;;;;;;14.70;14.20;;;;;;;-141.02;100.00;38776.19;5135954;27;20670;-59
2023/09/08 03:42:51;;;;;;;15.48;14.93;;;;;;;-141.02;100.00;38806.88;5135475;27;20632;-58
2023/09/08 03:45:18;;;;;;;15.60;15.00;;;;;;;-141.02;100.00;38864.41;5135720;27;20224;-59
2023/09/08 03:47:45;;;;;;;16.67;15.98;;;;;;;-141.02;100.00;38931.50;5135422;27;20697;-58
2023/09/08 03:50:12;;;;;;;16.35;15.75;;;;;;;-141.02;100.00;39027.41;5135376;27;20555;-58
2023/09/08 03:52:39;;;;;;;16.50;15.90;;;;;;;-141.02;100.00;39167.38;5135343;27;20733;-70
2023/09/08 03:55:07;;;;;;;17.45;16.65;;;;;;;-141.02;100.00;39328.47;5135575;27;20200;-58
2023/09/08 03:57:35;;;;;;;18.13;17.30;;;;;;;-141.02;100.00;39447.38;5135633;27;20196;-58
2023/09/08 04:00:04;;;;;;;18.08;17.27;;;;;;;-141.02;100.00;39516.41;5135513;27;20192;-59
2023/09/08 04:02:31;;;;;;;18.75;17.85;;;;;;;-141.02;100.00;39585.44;5135160;27;20193;-58
2023/09/08 04:04:58;;;;;;;18.98;17.98;;;;;;;-141.02;98.75;39660.25;5134367;27;20232;-62
2023/09/08 04:07:25;;;;;;;19.13;18.13;;;;;;;-141.02;95.62;39723.53;5135325;27;20211;-59
2023/09/08 04:09:52;;;;;;;18.48;17.58;;;;;;;-141.02;93.76;39827.13;5135362;27;20271;-58
2023/09/08 04:12:19;;;;;;;19.67;18.67;;;;;;;-141.02;92.46;39880.81;5134926;27;20227;-58
2023/09/08 04:14:49;;;;;;;19.30;18.30;;;;;;;-141.02;89.70;39911.50;5135246;27;20257;-58
2023/09/08 04:17:15;;;;;;;19.25;18.25;;;;;;;-141.02;90.55;39969.06;5135134;27;20208;-59
2023/09/08 04:19:43;;;;;;;19.17;18.17;;;;;;;-141.02;89.10;40041.94;5135188;27;20257;-58
2023/09/08 04:22:10;;;;;;;19.52;18.52;;;;;;;-141.02;88.29;40099.50;5135065;27;20220;-58
2023/09/08 04:24:37;;;;;;;20.20;19.10;;;;;;;-141.02;87.96;40153.19;5134848;27;20188;-58
2023/09/08 04:27:05;;;;;;;20.55;19.45;;;;;;;-141.02;87.50;40134.00;5134744;27;20223;-58
2023/09/08 04:29:32;;;;;;;20.20;19.20;;;;;;;-141.02;87.50;40264.47;5134571;27;20682;-58
2023/09/08 04:32:00;;;;;;;19.33;18.33;;;;;;;-141.02;86.93;40337.34;5134907;27;20192;-58
2023/09/08 04:34:27;;;;;;;19.10;18.10;;;;;;;-141.02;87.36;40402.56;5134806;27;20196;-58
2023/09/08 04:36:54;;;;;;;19.58;18.58;;;;;;;-141.02;86.91;40511.94;5134762;27;20631;-58
2023/09/08 04:39:21;;;;;;;19.23;18.23;;;;;;;-141.02;86.95;40565.63;5134756;27;20224;-58
2023/09/08 04:41:48;;;;;;;19.48;18.48;;;;;;;-141.02;86.25;40628.94;5134346;27;20196;-58
2023/09/08 04:44:15;;;;;;;19.70;18.70;;;;;;;-141.02;85.41;40663.47;5134683;27;20280;-58
2023/09/08 04:46:42;;;;;;;19.65;18.65;;;;;;;-141.02;85.19;40793.94;5134477;27;20228;-58
2023/09/08 04:49:10;;;;;;;19.63;18.63;;;;;;;-141.02;84.87;40811.22;5134258;27;20249;-58
2023/09/08 04:51:37;;;;;;;19.65;18.65;;;;;;;-141.02;84.95;40872.59;5134507;27;20192;-58
2023/09/08 04:54:04;;;;;;;19.65;18.65;;;;;;;-141.02;84.67;40790.09;5134071;27;20188;-69
2023/09/08 04:56:31;;;;;;;19.65;18.65;;;;;;;-141.02;84.52;40747.91;5134092;27;20240;-58
2023/09/08 04:59:00;;;;;;;19.88;18.88;;;;;;;-141.02;84.03;40686.50;5134047;27;20662;-58
2023/09/08 05:01:27;;;;;;;19.55;18.55;;;;;;;-141.02;84.08;40744.06;5134051;27;20246;-58
2023/09/08 05:03:55;;;;;;;19.58;18.58;;;;;;;-141.02;84.57;40684.59;5133971;27;20231;-58
2023/09/08 05:06:23;;;;;;;19.20;18.20;;;;;;;-141.02;83.91;40604.00;5134141;27;20235;-58
2023/09/08 05:08:50;;;;;;;19.33;18.35;;;;;;;-141.02;83.47;40617.44;5133954;27;20227;-58
2023/09/08 05:11:18;;;;;;;19.33;18.42;;;;;;;-141.02;83.69;40625.13;5133803;27;20222;-58
2023/09/08 05:13:46;;;;;;;19.63;18.73;;;;;;;-141.02;83.41;40577.16;5133862;27;20283;-59
2023/09/08 05:16:13;;;;;;;19.52;18.63;;;;;;;-141.02;84.05;40598.25;5133202;27;20192;-59
2023/09/08 05:18:40;;;;;;;18.88;18.08;;;;;;;-141.02;84.31;40592.50;5133990;27;20283;-58
2023/09/08 05:21:07;;;;;;;18.70;17.80;;;;;;;-141.02;83.70;40628.94;5133999;27;20275;-59
2023/09/08 05:23:36;;;;;;;19.48;18.50;;;;;;;-141.02;83.61;40655.81;5133848;27;20276;-58
2023/09/08 05:26:03;;;;;;;20.25;19.25;;;;;;;-141.02;84.08;40579.06;5133473;27;20224;-58
2023/09/08 05:28:29;;;;;;;19.55;18.65;;;;;;;-141.02;82.89;40678.84;5133385;27;20196;-58
2023/09/08 05:30:56;;;;;;;19.52;18.55;;;;;;;-141.02;82.77;40669.25;5133493;27;20196;-58
2023/09/08 05:33:24;;;;;;;19.67;18.67;;;;;;;-141.02;82.53;40673.06;5133844;27;20196;-58
2023/09/08 05:35:50;;;;;;;19.77;18.77;;;;;;;-141.02;81.21;40688.44;5134538;27;20200;-58
2023/09/08 05:38:17;;;;;;;19.67;18.67;;;;;;;-141.02;80.98;40688.44;5133656;27;20261;-58
2023/09/08 05:40:46;;;;;;;19.58;18.58;;;;;;;-141.02;80.74;40688.44;5133247;27;20192;-58
2023/09/08 05:43:13;;;;;;;19.73;18.73;;;;;;;-141.02;81.12;40694.19;5133610;27;20279;-58
2023/09/08 05:45:40;;;;;;;19.55;18.55;;;;;;;-141.02;81.03;40675.00;5133506;27;20276;-58
2023/09/08 05:48:07;;;;;;;19.65;18.65;;;;;;;-141.02;80.74;40684.59;5133225;27;20228;-62
2023/09/08 05:50:34;;;;;;;19.90;18.90;;;;;;;-141.02;80.65;40713.38;5133161;27;20201;-58
2023/09/08 05:53:01;;;;;;;20.20;19.20;;;;;;;-141.02;80.46;40751.72;5133344;27;20607;-60
2023/09/08 05:55:28;;;;;;;19.63;18.67;;;;;;;-141.02;80.19;40767.09;5133444;27;20287;-58
2023/09/08 05:57:56;;;;;;;20.00;19.00;;;;;;;-141.02;79.52;40770.91;5132980;27;20566;-59
2023/09/08 06:00:23;;;;;;;19.67;18.67;;;;;;;-141.02;79.22;40769.00;5133331;27;20192;-58
2023/09/08 06:02:50;;;;;;;19.90;18.90;;;;;;;-141.02;77.59;40780.50;5133046;27;20189;-59
2023/09/08 06:05:17;;;;;;;19.58;18.58;;;;;;;-141.02;77.03;40836.16;5132900;27;20271;-59
2023/09/08 06:07:44;;;;;;;20.02;19.02;;;;;;;-141.02;76.88;40855.34;5132979;27;20228;-58
2023/09/08 06:10:11;;;;;;;20.02;19.02;;;;;;;-141.02;76.54;40828.47;5132856;27;20199;-59
2023/09/08 06:12:38;;;;;;;20.08;19.08;;;;;;;-141.02;75.69;40847.66;5133214;27;20220;-59
2023/09/08 06:15:08;;;;;;;20.02;19.02;;;;;;;-141.02;75.64;40845.75;5133271;27;20227;-59
2023/09/08 06:17:35;;;;;;;19.23;18.33;;;;;;;-141.02;74.80;40863.00;5132879;27;20202;-58
2023/09/08 06:20:02;;;;;;;18.95;18.05;;;;;;;-141.02;74.86;40960.88;5132823;27;20283;-58
2023/09/08 06:22:29;;;;;;;19.60;18.60;;;;;;;-141.02;73.51;40943.59;5132747;27;20690;-59
2023/09/08 06:24:56;;;;;;;20.30;19.23;;;;;;;-141.02;72.74;40934.00;5133171;27;20250;-59
2023/09/08 06:27:23;;;;;;;20.20;19.10;;;;;;;-141.02;72.40;40943.59;5135313;27;20299;-59
2023/09/08 06:29:51;;;;;;;20.02;18.92;;;;;;;-141.02;72.45;40939.75;5137211;27;20228;-58
2023/09/08 06:32:19;;;;;;;20.08;18.98;;;;;;;-141.02;71.35;40968.53;5136918;27;20579;-59
2023/09/08 06:34:46;;;;;;;19.50;18.50;;;;;;;-141.02;71.60;40981.97;5136790;27;20658;-59
2023/09/08 06:37:13;;;;;;;19.90;18.80;;;;;;;-141.02;72.59;40997.31;5136860;27;20208;-72
2023/09/08 06:39:40;;;;;;;19.55;18.55;;;;;;;-141.02;71.26;40976.22;5137021;27;20192;-59
2023/09/08 06:42:07;;;;;;;19.50;18.50;;;;;;;-141.02;72.41;41020.34;5136788;27;20196;-59
2023/09/08 06:44:34;;;;;;;19.90;18.80;;;;;;;-141.02;70.59;41037.63;5137006;27;20198;-59
2023/09/08 06:47:01;;;;;;;20.33;19.23;;;;;;;-141.02;70.55;41012.66;5136846;27;20227;-59
2023/09/08 06:49:29;;;;;;;20.05;18.95;;;;;;;-141.02;69.69;41026.09;5136588;27;20700;-58
2023/09/08 06:51:56;;;;;;;20.00;18.90;;;;;;;-141.02;69.44;41016.50;5136459;27;20283;-59
2023/09/08 06:54:23;;;;;;;19.90;18.80;;;;;;;-141.02;69.72;41047.22;5136544;27;20661;-59
2023/09/08 06:56:50;;;;;;;19.75;18.65;;;;;;;-141.02;69.60;41056.81;5136452;27;20636;-59
2023/09/08 06:59:17;;;;;;;19.75;18.65;;;;;;;-141.02;69.10;41043.38;5136734;27;20228;-59
2023/09/08 07:01:44;;;;;;;19.55;18.45;;;;;;;-141.02;69.65;41066.41;5136354;27;20204;-70
2023/09/08 07:04:11;;;;;;;19.75;18.65;;;;;;;-141.02;69.67;41028.03;5136186;27;20230;-59
2023/09/08 07:06:43;;;;;;;18.98;17.98;;;;;;;-141.02;69.66;41097.09;5137329;27;20580;-59
2023/09/08 07:09:10;;;;;;;19.40;18.40;;;;;;;-141.02;68.54;41091.34;5136199;27;20242;-59
2023/09/08 07:11:37;;;;;;;18.98;17.98;;;;;;;-141.02;69.28;41150.81;5136170;27;20235;-59
2023/09/08 07:14:04;;;;;;;18.83;17.83;;;;;;;-141.02;68.57;41183.44;5136493;27;20213;-59
2023/09/08 07:16:31;;;;;;;18.85;17.85;;;;;;;-141.02;67.99;41204.53;5136348;27;20202;-59
2023/09/08 07:18:59;;;;;;;19.08;18.08;;;;;;;-141.02;67.74;41248.69;5136400;27;20261;-59
2023/09/08 07:21:26;;;;;;;19.38;18.38;;;;;;;-141.02;68.01;41319.69;5136484;27;20288;-59
2023/09/08 07:23:55;;;;;;;19.08;18.08;;;;;;;-141.02;67.51;41338.88;5136364;27;20201;-59
2023/09/08 07:26:22;;;;;;;19.55;18.55;;;;;;;-141.02;67.57;41423.28;5136059;27;20309;-59
2023/09/08 07:28:49;;;;;;;19.92;18.85;;;;;;;-141.02;67.21;41576.81;5136184;27;20201;-59
2023/09/08 07:31:17;;;;;;;19.33;18.23;;;;;;;-141.02;66.73;41665.09;5136763;27;20196;-59
2023/09/08 07:33:44;;;;;;;19.08;18.08;;;;;;;-141.02;66.58;41630.56;5136578;27;20196;-59
2023/09/08 07:36:11;;;;;;;19.35;18.25;;;;;;;-141.02;65.88;41638.22;5136036;27;20740;-59
2023/09/08 07:38:38;;;;;;;18.55;17.55;;;;;;;-141.02;66.82;41718.81;5134743;27;20721;-59
2023/09/08 07:41:06;;;;;;;18.58;17.58;;;;;;;-141.02;65.41;41764.88;5135938;27;20272;-71
2023/09/08 07:43:33;;;;;;;18.50;17.50;;;;;;;-141.02;65.41;41814.78;5135571;27;20232;-59
2023/09/08 07:46:00;;;;;;;18.42;17.42;;;;;;;-141.02;64.62;41860.84;5135759;27;20268;-59
2023/09/08 07:48:27;;;;;;;18.55;17.55;;;;;;;-141.02;63.08;41868.53;5135795;27;20353;-59
2023/09/08 07:50:54;;;;;;;18.83;17.83;;;;;;;-141.02;63.47;42023.97;5135386;27;20553;-59
2023/09/08 07:53:21;;;;;;;18.77;17.77;;;;;;;-141.02;62.98;42002.88;5135597;27;20291;-59
2023/09/08 07:55:48;;;;;;;19.08;18.08;;;;;;;-141.02;61.73;42039.34;5135594;27;20196;-59
2023/09/08 07:58:17;;;;;;;19.25;18.15;;;;;;;-141.02;61.81;42127.63;5135602;27;20253;-59
2023/09/08 08:00:44;;;;;;;19.05;17.95;;;;;;;-141.02;60.22;42214.00;5135320;27;20224;-59
2023/09/08 08:03:11;;;;;;;18.70;17.60;;;;;;;-141.02;59.20;42125.69;5134863;27;21733;-60
2023/09/08 08:05:38;;;;;;;18.75;17.65;;;;;;;-141.02;59.18;42206.31;5135401;27;20195;-60
2023/09/08 08:08:05;;;;;;;18.45;17.38;;;;;;;-141.02;59.19;42304.22;5135047;27;20200;-59
2023/09/08 08:10:32;;;;;;;18.35;17.25;;;;;;;-141.02;58.07;42219.75;5135852;27;20197;-58
2023/09/08 08:12:59;;;;;;;18.38;17.27;;;;;;;-141.02;59.31;42369.47;5135038;27;20193;-60
2023/09/08 08:15:37;;;;;;;18.45;17.35;;;;;;;-141.02;57.32;42208.25;5135172;27;20576;-58
2023/09/08 08:18:05;;;;;;;18.63;17.52;;;;;;;-141.02;57.37;42300.38;5135395;27;20257;-59
2023/09/08 08:20:34;;;;;;;19.05;17.95;;;;;;;-141.02;57.02;42256.22;5135130;27;20193;-59
2023/09/08 08:23:02;;;;;;;18.38;17.38;;;;;;;-141.02;56.42;42308.03;5134709;27;20218;-61
2023/09/08 08:25:29;;;;;;;18.02;17.02;;;;;;;-141.02;57.27;42202.47;5134986;27;20197;-59
2023/09/08 08:27:56;;;;;;;18.27;17.27;;;;;;;-141.02;57.43;42356.03;5135015;27;20284;-59
2023/09/08 08:30:23;;;;;;;18.17;17.17;;;;;;;-141.02;56.27;41661.25;5134561;27;20577;-61
2023/09/08 08:32:53;;;;;;;18.17;17.17;;;;;;;-141.02;56.32;41523.09;5134516;27;20617;-59
2023/09/08 08:35:20;;;;;;;18.05;17.05;;;;;;;-141.02;57.67;42185.22;5134542;27;20661;-59
2023/09/08 08:37:47;;;;;;;17.80;16.80;;;;;;;-141.02;57.27;42275.41;5134872;27;20188;-70
2023/09/08 08:40:14;;;;;;;17.88;16.88;;;;;;;-141.02;55.70;42283.09;5134778;27;20196;-59
2023/09/08 08:42:42;;;;;;;18.40;17.40;;;;;;;-141.02;56.20;42540.31;5134677;27;20704;-59
2023/09/08 08:45:10;;;;;;;17.77;16.77;;;;;;;-141.02;55.54;42313.81;5134640;27;20198;-58
2023/09/08 08:47:37;;;;;;;17.88;16.88;;;;;;;-141.02;55.56;42315.72;5134259;27;20228;-59
2023/09/08 08:50:10;;;;;;;17.85;16.85;;;;;;;-141.02;55.77;41726.50;5134244;27;20652;-71
2023/09/08 08:52:37;;;;;;;17.75;16.75;;;;;;;-141.02;55.90;42361.78;5134298;27;20651;-60
2023/09/08 08:55:04;;;;;;;17.90;16.90;;;;;;;-141.02;54.75;42448.16;5134081;27;20278;-72
2023/09/08 08:57:33;;;;;;;18.00;17.00;;;;;;;-141.02;55.49;42010.53;5134182;27;20189;-59
2023/09/08 09:00:01;;;;;;;17.33;16.42;;;;;;;-141.02;55.04;42375.22;5134015;27;20195;-59
2023/09/08 09:02:30;;;;;;;18.30;17.10;;;;;;;-141.02;54.91;42467.38;5134292;27;20200;-59
2023/09/08 09:04:58;;;;;;;17.63;16.63;;;;;;;-141.02;54.62;42359.88;5133789;27;20285;-59
2023/09/08 09:07:27;;;;;;;17.67;16.67;;;;;;;-141.02;54.14;42302.28;5134185;27;20228;-71
2023/09/08 09:09:55;;;;;;;18.83;17.83;;;;;;;-141.02;53.91;42548.00;5134248;27;20279;-59
2023/09/08 09:12:22;;;;;;;18.00;17.00;;;;;;;-141.02;53.14;42617.09;5134084;27;20192;-59
2023/09/08 09:14:54;;;;;;;17.58;16.60;;;;;;;-141.02;53.16;42632.44;5134050;27;20216;-59
2023/09/08 09:17:21;;;;;;;18.00;17.00;;;;;;;-141.02;53.70;42622.84;5133674;27;20275;-59
2023/09/08 09:19:48;;;;;;;17.75;16.75;;;;;;;-141.02;53.39;42294.63;5133678;27;20658;-59
2023/09/08 09:22:15;;;;;;;17.58;16.58;;;;;;;-141.02;53.85;42048.94;5133960;27;20220;-59
2023/09/08 09:24:44;;;;;;;17.65;16.65;;;;;;;-141.02;53.48;42463.53;5133490;27;20663;-59
2023/09/08 09:27:11;;;;;;;17.40;16.40;;;;;;;-141.02;52.88;42459.69;5133775;27;20227;-59
2023/09/08 09:29:46;;;;;;;17.38;16.38;;;;;;;-141.02;52.85;42498.06;5133400;27;20265;-59
2023/09/08 09:32:13;;;;;;;18.10;17.10;;;;;;;-141.02;53.08;42549.91;5133857;27;20191;-58
2023/09/08 09:34:49;;;;;;;18.40;17.40;;;;;;;-141.02;51.73;41926.09;5134116;27;20287;-60
2023/09/08 09:37:17;;;;;;;17.70;16.80;;;;;;;-141.02;52.45;42333.00;5133458;27;20184;-65
2023/09/08 09:39:50;;;;;;;17.95;16.95;;;;;;;-141.02;53.16;42421.28;5133606;27;20224;-60
2023/09/08 09:42:18;;;;;;;17.58;16.58;;;;;;;-141.02;53.88;41972.16;5133422;27;20189;-72
2023/09/08 09:44:45;;;;;;;17.35;16.40;;;;;;;-141.02;54.12;42348.34;5133177;27;20278;-59
2023/09/08 09:47:15;;;;;;;17.50;16.60;;;;;;;-141.02;53.76;42325.31;5133481;27;20224;-59
2023/09/08 09:49:43;;;;;;;17.75;16.85;;;;;;;-141.02;53.81;41843.56;5133421;27;20193;-69
2023/09/08 09:52:12;;;;;;;17.33;16.42;;;;;;;-141.02;53.65;42536.47;5133172;27;20227;-59
2023/09/08 09:54:40;;;;;;;17.67;16.77;;;;;;;-141.02;52.40;42501.91;5133329;27;20204;-59
2023/09/08 09:57:10;;;;;;;17.85;16.95;;;;;;;-141.02;51.51;42273.50;5133347;27;20195;-59
2023/09/08 09:59:37;;;;;;;17.80;16.80;;;;;;;-141.02;51.83;42037.41;5133011;27;20725;-59
2023/09/08 10:02:05;;;;;;;18.10;17.20;;;;;;;-141.02;52.88;41912.66;5132515;27;20287;-59
2023/09/08 10:04:32;;;;;;;17.55;16.65;;;;;;;-141.02;53.39;42405.94;5132767;27;20228;-59
2023/09/08 10:07:00;;;;;;;17.25;16.35;;;;;;;-141.02;53.89;41726.50;5133155;28;20256;-59
2023/09/08 10:09:27;;;;;;;17.45;16.55;;;;;;;-141.02;54.00;41791.75;5133204;27;20283;-59
2023/09/08 10:11:55;;;;;;;17.42;16.48;;;;;;;-141.02;54.91;41830.13;5132973;27;20666;-59
2023/09/08 10:14:27;;;;;;;17.92;16.92;;;;;;;-141.02;55.49;41914.59;5132861;27;20188;-59
2023/09/08 10:16:57;;;;;;;17.30;16.30;;;;;;;-141.02;56.14;41849.34;5133292;27;20188;-59
2023/09/08 10:19:24;;;;;;;18.00;17.00;;;;;;;-141.02;57.62;42592.13;5133726;27;20185;-60
2023/09/08 10:21:52;;;;;;;18.17;17.17;;;;;;;-141.02;55.77;42916.56;5133190;27;20192;-60
2023/09/08 10:24:24;;;;;;;18.08;17.08;;;;;;;-141.02;55.77;42809.06;5132773;28;20694;-59
2023/09/08 10:26:57;;;;;;;17.85;16.85;;;;;;;-141.02;56.19;41968.31;5133064;27;20597;-59
2023/09/08 10:29:25;;;;;;;18.02;17.02;;;;;;;-141.02;57.70;41931.84;5133121;27;20184;-59
2023/09/08 10:31:53;;;;;;;17.90;16.90;;;;;;;-141.02;57.89;41993.28;5132813;27;20280;-59
2023/09/08 10:34:21;;;;;;;17.95;16.95;;;;;;;-141.02;58.73;42841.69;5133094;27;20232;-59
2023/09/08 10:36:48;;;;;;;17.60;16.60;;;;;;;-141.02;56.62;42029.75;5133014;27;20574;-71
2023/09/08 10:39:35;;;;;;;17.65;16.67;;;;;;;-141.02;56.33;41860.84;5133057;27;20193;-59
2023/09/08 10:42:20;;;;;;;17.90;16.95;;;;;;;-141.02;56.30;42256.22;5133046;27;20181;-59
2023/09/08 10:44:57;;;;;;;17.88;16.88;;;;;;;-141.02;55.86;42045.09;5132912;27;20196;-59
2023/09/08 10:47:25;;;;;;;17.85;16.85;;;;;;;-141.02;55.88;42739.94;5132608;27;20208;-59
2023/09/08 10:49:56;;;;;;;17.67;16.67;;;;;;;-141.02;54.47;42801.38;5132878;27;20253;-60
2023/09/08 10:52:24;;;;;;;18.23;17.23;;;;;;;-141.02;52.98;43191.09;5132635;27;20181;-60
2023/09/08 10:54:53;;;;;;;17.80;16.80;;;;;;;-141.02;52.88;43062.47;5132450;27;20192;-59
2023/09/08 10:57:22;;;;;;;18.10;17.10;;;;;;;-141.02;52.01;42580.63;5132792;27;20197;-60
2023/09/08 10:59:54;;;;;;;18.10;17.10;;;;;;;-141.02;53.87;42413.63;5132791;27;20200;-59
2023/09/08 11:02:35;;;;;;;18.00;17.00;;;;;;;-141.02;54.03;42256.22;5132784;27;20185;-60
2023/09/08 11:05:04;;;;;;;17.90;16.90;;;;;;;-141.02;54.42;42192.88;5132212;27;20636;-59
2023/09/08 11:07:32;;;;;;;17.52;16.63;;;;;;;-141.02;54.19;42121.88;5132375;27;20665;-59